Main page
METAR-TAF:

METAR-TAF

Airports :

Córdoba Airport

Córdoba, Spain

latitude: 37-51N, longitude: 004-51W, elevation: 90 m

Current weather observation

The report was made 22 minutes ago, at 03:00 UTC
Wind 4 kt from the West/Southwest
Temperature 19°C
Humidity 73%
Pressure 1012 hPa
Visibility 10 km or more
no clouds below 1500 m and no cumulonimbus

METAR: LEBA 150300Z AUTO 24004KT CAVOK 19/14 Q1012

Time: 05:22 (03:22 UTC)

Forecast

The report was made 1 hour and 22 minutes ago, at 02:00 UTC
Forecast valid from 15 at 03 UTC to 16 at 03 UTC
Wind 3 kt from variable directions
Visibility 10 km or more
no clouds below 1500 m and no cumulonimbus
Becoming
from 15 at 07 UTC to 15 at 09 UTC
Wind 10 kt from the West/Southwest

TAF: LEBA 150200Z 1503/1603 VRB03KT CAVOK TX33/1515Z TN17/1505Z BECMG 1507/1509 25010KT

Weather observations and forecasts of more than 4000 airports (METAR and TAF reports).

The available stations are represented by yellow and red dots on the map.

Hover mouse over dot to see the name of the station.

Then click to see weather observations and forecasts.

To change the map : click on the green buttons with a black cross to zoom in, on the green button with a dash to zoom out, or on the green arrows for adjacent maps.


METAR-TAF: